KPDT

Eastern Oregon Regional at Pendleton Airport

Pendleton, Oregon, USA
METAR KPDT 231053Z AUTO 14005KT 10SM CLR 16/11 A2974 RMK AO2 SLP054 T01610111 TSNO
Observed Flight Rules
May-23 @ 10:53 UTC (11 minutes ago) Visual Flight Rules
Wind Visibility Clouds
140° at 5 knots 10 miles
  • Clear skies
Temperatures Readings
Current 16°C / 61°F
Dewpoint 11°C / 52°F
Humidity 72%
Altimeter 29.74" Hg
Pressure 1005.4 hPa
Elevation 462
METAR KPDT 231053Z AUTO 14005KT 10SM CLR 16/11 A2974 RMK AO2 SLP054 T01610111 TSNO
Observed Flight Rules
May-23 @ 10:53 UTC
(11 minutes ago)
VFR
Wind Visibility
140° at 5 knots 10 miles
Clouds
  • Clear skies
Temperature Dewpoint
16°C / 61°F 11°C / 52°F
Humidity Altimeter Pressure
72% 29.74" Hg 1005.4 hPa